Thunder radar more information blitzortung!


Radar de pluja more information rain snow radar


Visita la nostra xarxa de llocs de meteo:

Template documentation
and downloads

And another site



No particular awareness of the weather is required.    There are no Weather-warnings

Pagina Historial Weather Underground text

Diari Resum Novembre 26, 2017 Unitats:  Imperial    Mètric   Tant
« Previous Dia
SegĂźent Dia »
Diari Setmana Mensual Anual Personalitzada
  Maxima: Minima: Media:
Temperatura: 57.7 °F 38.8 °F 47.5 °F
Punt de rosada: 38.1 °F 21.4 °F 28 °F
Humitat: 55 % 38 % 47 %
Wind Speed: 10.4 mph 0 mph 2.3 mph
RĂ fegues de vent: 10.4 mph - -
Vent:- - South
Pression baro: 30.4 in 30.2 in -
Precipitacions: 0 in    
Historical Graphs
 
 
Dades de taula per Novembre 26, 2017
Temps Temperatura Punt de rosada Pression baro Vent Wind Speed RĂ fegues de vent Humitat Rainfall Rate (Hourly)
00:01 47.1 °F 29.5 °F 30.2 in WSW 2.4 mph 2.4 mph 50 % 0 in
00:05 41.4 °F 25 °F 30.3 in Calm   2 mph 52 % 0 in
00:06 46.9 °F 29.1 °F 30.2 in SW 1.2 mph   50 % 0 in
00:11 46.6 °F 28.9 °F 30.2 in Calm     50 % 0 in
00:15 40.8 °F 24.4 °F 30.3 in East 1 mph 2 mph 52 % 0 in
00:16 46.4 °F 28.8 °F 30.2 in Calm     50 % 0 in
00:25 40.6 °F 24.4 °F 30.3 in Calm   2 mph 52 % 0 in
00:35 40.5 °F 24.6 °F 30.3 in SW 1 mph 2 mph 53 % 0 in
00:45 40.3 °F 24.4 °F 30.3 in WSW 1 mph 2 mph 53 % 0 in
00:55 40.3 °F 24.4 °F 30.3 in West 1 mph 2 mph 53 % 0 in
01:05 40.1 °F 24.3 °F 30.3 in West 1 mph   53 % 0 in
01:15 39.7 °F 24.4 °F 30.3 in Calm   1 mph 54 % 0 in
01:25 39.7 °F 24.4 °F 30.3 in NNE 2 mph 3 mph 54 % 0 in
01:35 39.9 °F 24.6 °F 30.3 in NE 2 mph 4 mph 54 % 0 in
01:45 39.9 °F 24.6 °F 30.3 in NNE 2 mph 2 mph 54 % 0 in
01:55 40.1 °F 24.8 °F 30.3 in NNW 2 mph 4 mph 54 % 0 in
02:05 40.5 °F 25.2 °F 30.3 in NNE 5 mph 5 mph 54 % 0 in
02:15 40.5 °F 25.5 °F 30.3 in NE 2 mph 5 mph 55 % 0 in
02:25 40.5 °F 25.5 °F 30.3 in North 2 mph 3 mph 55 % 0 in
02:35 40.5 °F 25.5 °F 30.3 in NNW 2 mph 3 mph 55 % 0 in
02:45 40.8 °F 25.9 °F 30.3 in NNE 1 mph 3 mph 55 % 0 in
02:55 41 °F 26.1 °F 30.4 in NNE 1 mph 2 mph 55 % 0 in
03:05 41.4 °F 26.4 °F 30.4 in North 2 mph 2 mph 55 % 0 in
03:15 41.7 °F 26.8 °F 30.4 in North 1 mph 3 mph 55 % 0 in
03:25 41.9 °F 27 °F 30.4 in NNE 1 mph 4 mph 55 % 0 in
03:35 42.6 °F 27.7 °F 30.4 in Calm   3 mph 55 % 0 in
03:45 43.2 °F 28 °F 30.4 in Calm   2 mph 55 % 0 in
03:55 44.4 °F 29.1 °F 30.4 in NNW 1 mph 2 mph 55 % 0 in
04:05 45.3 °F 29.7 °F 30.4 in North 1 mph 2 mph 54 % 0 in
04:15 46.8 °F 30.9 °F 30.4 in NNW 1 mph 2 mph 54 % 0 in
04:25 46.9 °F 30.7 °F 30.4 in WSW 1 mph 3 mph 53 % 0 in
04:35 47.3 °F 30.9 °F 30.4 in SW 1 mph 2 mph 53 % 0 in
04:45 47.3 °F 30.6 °F 30.4 in SSW 2 mph 3 mph 52 % 0 in
04:55 47.5 °F 30.7 °F 30.4 in East 2 mph 3 mph 52 % 0 in
05:05 48.2 °F 31.5 °F 30.4 in ENE 1 mph 4 mph 52 % 0 in
05:15 48.6 °F 31.6 °F 30.4 in NE 1 mph 3 mph 52 % 0 in
05:25 48.9 °F 32 °F 30.4 in NE 3 mph 3 mph 52 % 0 in
05:35 48.6 °F 31.3 °F 30.4 in NE 2 mph 3 mph 51 % 0 in
05:45 49.8 °F 32.4 °F 30.4 in ENE 1 mph 2 mph 51 % 0 in
11:45 49.5 °F 32.2 °F 30.4 in East 2.4 mph 2.4 mph 51 % 0 in
11:50 50.4 °F 33.4 °F 30.4 in ESE 2.4 mph 2.4 mph 52 % 0 in
11:55 50.4 °F 32.9 °F 30.4 in SE 2.4 mph 2.4 mph 51 % 0 in
12:00 50.7 °F 33.3 °F 30.4 in East 2.3 mph 2.3 mph 51 % 0 in
12:05 51.6 °F 34.2 °F 30.4 in NW 2.2 mph 2.2 mph 51 % 0 in
12:10 51.4 °F 34 °F 30.4 in NNE 1.2 mph 1.2 mph 51 % 0 in
12:15 51.1 °F 33.6 °F 30.4 in East 3.6 mph 3.6 mph 51 % 0 in
12:20 51.4 °F 34 °F 30.4 in NNE 2.3 mph 2.3 mph 51 % 0 in
12:25 51.8 °F 34.2 °F 30.4 in East 2.3 mph 2.3 mph 51 % 0 in
12:30 52.5 °F 34.9 °F 30.4 in ENE 2.2 mph 2.2 mph 51 % 0 in
12:35 52.3 °F 34.7 °F 30.4 in ENE 2.9 mph 2.9 mph 51 % 0 in
12:40 52.5 °F 34.9 °F 30.4 in East 3.5 mph 3.5 mph 51 % 0 in
12:45 52.5 °F 34.3 °F 30.4 in ESE 3.5 mph 3.5 mph 50 % 0 in
12:50 53.1 °F 35.4 °F 30.4 in ESE 4.5 mph 4.5 mph 51 % 0 in
12:55 52.9 °F 34.7 °F 30.4 in ESE 3.5 mph 3.5 mph 50 % 0 in
13:00 53.1 °F 34.9 °F 30.4 in ENE 3.5 mph 3.5 mph 50 % 0 in
13:05 53.6 °F 35.4 °F 30.4 in East 3.5 mph 3.5 mph 50 % 0 in
13:10 54.1 °F 36.3 °F 30.4 in ESE 2.6 mph 2.6 mph 51 % 0 in
13:15 54.9 °F 36.7 °F 30.4 in South 2.4 mph 2.4 mph 50 % 0 in
13:20 55.8 °F 37.9 °F 30.4 in WSW 4.6 mph 4.6 mph 51 % 0 in
13:25 56.1 °F 38.1 °F 30.4 in SSE 2.3 mph 2.3 mph 51 % 0 in
13:30 55.9 °F 38.1 °F 30.4 in ENE 2.6 mph 2.6 mph 51 % 0 in
13:35 55.8 °F 37.4 °F 30.4 in SW 3.5 mph 3.5 mph 50 % 0 in
13:40 55.8 °F 37.9 °F 30.4 in SSW 4.6 mph 4.6 mph 51 % 0 in
13:45 55.8 °F 37.4 °F 30.3 in SSE 2.3 mph 2.3 mph 50 % 0 in
13:50 55.9 °F 37.6 °F 30.3 in SW 4.6 mph 4.6 mph 50 % 0 in
13:55 55.9 °F 37 °F 30.3 in South 5.8 mph 5.8 mph 49 % 0 in
14:00 56.3 °F 37.4 °F 30.3 in WSW 5.8 mph 5.8 mph 49 % 0 in
14:05 56.5 °F 37 °F 30.3 in SW 8.1 mph 8.1 mph 48 % 0 in
14:10 56.5 °F 36 °F 30.3 in SSW 4.6 mph 4.6 mph 46 % 0 in
14:15 56.3 °F 35.2 °F 30.4 in WSW 4.6 mph 4.6 mph 45 % 0 in
14:20 56.8 °F 35.8 °F 30.4 in WNW 8.1 mph 8.1 mph 45 % 0 in
14:21 57 °F 36.3 °F 30.4 in WSW 4.6 mph 4.6 mph 46 % 0 in
14:26 57.2 °F 36 °F 30.4 in SSW 2.3 mph 2.3 mph 45 % 0 in
14:31 57.4 °F 36.1 °F 30.4 in West 3.5 mph 3.5 mph 45 % 0 in
14:36 57.6 °F 35.8 °F 30.4 in WNW 3.5 mph 3.5 mph 44 % 0 in
14:41 57.6 °F 35.8 °F 30.4 in SSW 4.6 mph 4.6 mph 44 % 0 in
14:46 57.6 °F 35.2 °F 30.4 in WNW 4.6 mph 4.6 mph 43 % 0 in
14:51 56.7 °F 35.1 °F 30.4 in ENE 3.1 mph 3.1 mph 44 % 0 in
14:56 56.5 °F 35.4 °F 30.4 in West 3.5 mph 3.5 mph 45 % 0 in
15:01 56.5 °F 34.9 °F 30.4 in WSW 2.4 mph 2.4 mph 44 % 0 in
15:06 56.3 °F 34.5 °F 30.4 in NNE 2.3 mph 2.3 mph 44 % 0 in
15:11 56.8 °F 35.8 °F 30.4 in NNW 2.3 mph 2.3 mph 45 % 0 in
15:16 57.2 °F 35.4 °F 30.3 in WSW 4.6 mph 4.6 mph 44 % 0 in
15:21 57.7 °F 35.4 °F 30.3 in SW 4.9 mph 4.9 mph 43 % 0 in
15:26 57.4 °F 34.5 °F 30.3 in West 5.8 mph 5.8 mph 42 % 0 in
15:31 57.4 °F 34 °F 30.4 in West 8.1 mph 8.1 mph 41 % 0 in
15:36 56.8 °F 32.2 °F 30.4 in WNW 6.9 mph 6.9 mph 39 % 0 in
15:41 56.7 °F 32 °F 30.4 in West 5.8 mph 5.8 mph 39 % 0 in
15:46 56.8 °F 32.2 °F 30.4 in SW 5.8 mph 6 mph 39 % 0 in
15:51 56.5 °F 31.8 °F 30.4 in West 8.1 mph 8.1 mph 39 % 0 in
15:56 56.3 °F 30.9 °F 30.4 in West 10.4 mph 10.4 mph 38 % 0 in
16:01 56.3 °F 30.9 °F 30.4 in SW 5.6 mph 5.6 mph 38 % 0 in
16:06 56.1 °F 30.7 °F 30.4 in WSW 5.8 mph 5.8 mph 38 % 0 in
16:11 56.1 °F 30.7 °F 30.4 in WNW 4.6 mph 4.6 mph 38 % 0 in
16:16 55.9 °F 31.3 °F 30.4 in WNW 4.6 mph 4.6 mph 39 % 0 in
16:21 55.8 °F 31.3 °F 30.4 in West 5.8 mph 5.8 mph 39 % 0 in
16:26 55.8 °F 31.3 °F 30.4 in WSW 2.3 mph 2.4 mph 39 % 0 in
16:31 55.4 °F 30.7 °F 30.4 in West 3.8 mph 3.8 mph 39 % 0 in
16:36 55.2 °F 30.7 °F 30.4 in WSW 3.5 mph 3.5 mph 39 % 0 in
16:41 55.2 °F 30.7 °F 30.4 in WSW 2.4 mph 2.4 mph 39 % 0 in
16:46 55 °F 30.6 °F 30.4 in West 2.3 mph 2.3 mph 39 % 0 in
16:51 54.9 °F 30.4 °F 30.4 in WSW 2.3 mph 2.3 mph 39 % 0 in
16:56 54.5 °F 30 °F 30.4 in WSW 4.6 mph 4.6 mph 39 % 0 in
17:01 54.1 °F 29.7 °F 30.4 in West 5.8 mph 5.8 mph 39 % 0 in
17:06 54 °F 29.5 °F 30.4 in SW 5.8 mph 5.8 mph 39 % 0 in
17:11 53.2 °F 28.9 °F 30.4 in WSW 3.5 mph 3.5 mph 39 % 0 in
17:16 52.9 °F 28.6 °F 30.4 in WSW 3.5 mph 3.5 mph 39 % 0 in
17:21 52.3 °F 28 °F 30.4 in SSW 3.8 mph 3.8 mph 39 % 0 in
17:26 52 °F 27.9 °F 30.4 in WSW 2.4 mph 2.4 mph 39 % 0 in
17:31 51.8 °F 27.7 °F 30.4 in WSW 1.2 mph 1.2 mph 39 % 0 in
17:36 51.6 °F 27.3 °F 30.4 in NW 2.3 mph 2.3 mph 39 % 0 in
17:41 51.4 °F 27.3 °F 30.4 in ENE 1.4 mph 1.4 mph 39 % 0 in
17:46 51.3 °F 27.1 °F 30.4 in WSW 2.3 mph 2.3 mph 39 % 0 in
17:51 51.1 °F 27 °F 30.4 in WSW 2.6 mph 2.6 mph 39 % 0 in
17:56 51.1 °F 27 °F 30.4 in WSW 3.5 mph 3.5 mph 39 % 0 in
18:01 51.1 °F 27 °F 30.4 in SW 1.2 mph   39 % 0 in
18:06 50.7 °F 26.6 °F 30.4 in East 1.2 mph 1.4 mph 39 % 0 in
18:11 50.5 °F 26.4 °F 30.4 in ENE 1.6 mph   39 % 0 in
18:16 50.2 °F 26.1 °F 30.4 in ENE 2 mph 2 mph 39 % 0 in
18:21 50 °F 26.1 °F 30.4 in NNE 2.3 mph 2.3 mph 39 % 0 in
18:26 49.6 °F 25.7 °F 30.4 in NNE 1.2 mph   39 % 0 in
18:31 49.3 °F 25.3 °F 30.4 in Calm     39 % 0 in
18:36 48.7 °F 25 °F 30.4 in NE 1.2 mph 1.2 mph 39 % 0 in
18:41 48.7 °F 25.5 °F 30.4 in WNW 2.3 mph 2.3 mph 40 % 0 in
18:45 39.2 °F 23 °F 30.4 in SW 1 mph 2 mph 52 % 0 in
18:46 48.9 °F 25.5 °F 30.4 in West 1.2 mph 1.2 mph 40 % 0 in
18:51 48.9 °F 25.5 °F 30.4 in SW 2.3 mph 2.3 mph 40 % 0 in
18:55 39.6 °F 23.4 °F 30.4 in North 1 mph 2 mph 52 % 0 in
18:56 48.9 °F 25.5 °F 30.4 in West 2.3 mph 2.3 mph 40 % 0 in
19:01 48.7 °F 25.5 °F 30.4 in West 1.2 mph   40 % 0 in
19:05 39.6 °F 23.4 °F 30.4 in NNW 1 mph 1 mph 52 % 0 in
19:06 48.7 °F 25.5 °F 30.4 in Calm     40 % 0 in
19:11 48.6 °F 25.3 °F 30.4 in West 1.4 mph 1.4 mph 40 % 0 in
19:15 39.7 °F 24.1 °F 30.4 in Calm   1 mph 53 % 0 in
19:16 48.6 °F 25.3 °F 30.4 in West 2 mph   40 % 0 in
19:21 48.6 °F 25.3 °F 30.4 in WSW 1.6 mph 1.6 mph 40 % 0 in
19:25 39 °F 22.8 °F 30.4 in West 2 mph 3 mph 52 % 0 in
19:26 48.6 °F 25.3 °F 30.4 in WNW 2.3 mph 2.3 mph 40 % 0 in
19:31 48.7 °F 25.5 °F 30.4 in WSW 1.2 mph 1.2 mph 40 % 0 in
19:35 38.8 °F 23.2 °F 30.4 in Calm   2 mph 53 % 0 in
19:36 48.7 °F 26.1 °F 30.4 in WNW 1.2 mph 1.2 mph 41 % 0 in
19:41 48.7 °F 26.1 °F 30.4 in ENE 2.4 mph 2.4 mph 41 % 0 in
19:45 39.4 °F 23.7 °F 30.4 in Calm   2 mph 53 % 0 in
19:46 47.5 °F 25 °F 30.4 in ENE 3.5 mph 3.5 mph 41 % 0 in
19:51 47.3 °F 24.8 °F 30.4 in ESE 1.2 mph   41 % 0 in
19:55 39.6 °F 23.7 °F 30.4 in Calm     53 % 0 in
19:56 46.9 °F 24.4 °F 30.4 in Calm     41 % 0 in
20:01 46.8 °F 24.3 °F 30.4 in WNW 2.3 mph 2.3 mph 41 % 0 in
20:05 39.7 °F 24.1 °F 30.4 in Calm   1 mph 53 % 0 in
20:06 46.8 °F 24.3 °F 30.4 in WNW 1.4 mph 1.4 mph 41 % 0 in
20:11 46.6 °F 24.1 °F 30.4 in WNW 2.6 mph 2.6 mph 41 % 0 in
20:15 39.9 °F 24.6 °F 30.4 in NNE 2 mph 2 mph 54 % 0 in
20:16 46.4 °F 23.9 °F 30.4 in NW 2 mph 2 mph 41 % 0 in
20:21 46.4 °F 23.9 °F 30.4 in NNE 2.3 mph 2.3 mph 41 % 0 in
20:25 39.6 °F 24.3 °F 30.4 in Calm   1 mph 54 % 0 in
20:26 46.4 °F 23.9 °F 30.4 in WNW 1.2 mph 1.2 mph 41 % 0 in
20:31 46.6 °F 24.1 °F 30.4 in WNW 1.2 mph 1.4 mph 41 % 0 in
20:35 39.7 °F 24.4 °F 30.4 in Calm   1 mph 54 % 0 in
20:36 46.9 °F 25 °F 30.4 in NW 1.4 mph 1.4 mph 42 % 0 in
20:41 47.3 °F 25.3 °F 30.4 in North 1.2 mph   42 % 0 in
20:45 39.9 °F 24.6 °F 30.4 in WNW 1 mph 1 mph 54 % 0 in
20:46 46.8 °F 25 °F 30.4 in WNW 1.2 mph 1.2 mph 42 % 0 in
20:51 46.2 °F 24.4 °F 30.4 in NNE 2.3 mph 2.3 mph 42 % 0 in
20:55 39.9 °F 24.6 °F 30.4 in NNW 1 mph 2 mph 54 % 0 in
20:56 46 °F 24.3 °F 30.4 in ENE 2.3 mph 2.3 mph 42 % 0 in
21:01 45.9 °F 24.1 °F 30.4 in NNE 3.5 mph 3.5 mph 42 % 0 in
21:05 39.6 °F 24.3 °F 30.4 in Calm   1 mph 54 % 0 in
21:13 45 °F 23.7 °F 30.4 in East 2.3 mph 2.3 mph 43 % 0 in
21:15 39.6 °F 24.3 °F 30.4 in North 1 mph 2 mph 54 % 0 in
21:18 44.1 °F 23 °F 30.4 in NE 2.3 mph 2.4 mph 43 % 0 in
21:23 43.7 °F 22.6 °F 30.4 in NE 2.3 mph 2.3 mph 43 % 0 in
21:25 40.5 °F 25.2 °F 30.4 in NE 2 mph 3 mph 54 % 0 in
21:28 43.3 °F 22.8 °F 30.4 in NNE 1.2 mph 1.2 mph 44 % 0 in
21:33 43.2 °F 22.6 °F 30.4 in WNW 2.3 mph   44 % 0 in
21:35 40.5 °F 25.2 °F 30.4 in NE 2 mph 3 mph 54 % 0 in
21:38 43.2 °F 22.6 °F 30.4 in NNE 2.3 mph 2.3 mph 44 % 0 in
21:43 43.2 °F 22.6 °F 30.4 in NNE 0.9 mph   44 % 0 in
21:45 40.1 °F 24.8 °F 30.4 in NE 3 mph 4 mph 54 % 0 in
21:48 43.2 °F 23.2 °F 30.4 in North 2.3 mph 2.3 mph 45 % 0 in
21:53 43.2 °F 22.6 °F 30.4 in NW 2.3 mph 2.3 mph 44 % 0 in
21:55 40.3 °F 25.3 °F 30.4 in NE 2 mph 4 mph 55 % 0 in
21:58 43.2 °F 23.2 °F 30.4 in WSW 1.2 mph   45 % 0 in
22:03 42.8 °F 22.8 °F 30.4 in Calm     45 % 0 in
22:05 40.1 °F 25.2 °F 30.4 in NNE 1 mph 4 mph 55 % 0 in
22:08 42.4 °F 23.2 °F 30.4 in SSE 2.3 mph 2.3 mph 46 % 0 in
22:13 42.3 °F 22.8 °F 30.4 in ENE 1.2 mph   46 % 0 in
22:15 40.1 °F 25.2 °F 30.4 in NNE 2 mph 2 mph 55 % 0 in
22:18 41.4 °F 22.1 °F 30.4 in NNE 2.3 mph 2.3 mph 46 % 0 in
22:23 41.2 °F 21.9 °F 30.4 in SW 2.6 mph 2.6 mph 46 % 0 in
22:25 39.9 °F 25 °F 30.4 in Calm   2 mph 55 % 0 in
22:28 40.6 °F 21.4 °F 30.4 in WSW 2.3 mph 2.3 mph 46 % 0 in
22:33 40.6 °F 21.4 °F 30.4 in West 2.4 mph 2.4 mph 46 % 0 in
22:35 39.7 °F 25 °F 30.4 in NNE 1 mph 2 mph 55 % 0 in
22:38 40.6 °F 21.9 °F 30.4 in SSW 1.2 mph 1.2 mph 47 % 0 in
22:43 41 °F 22.3 °F 30.4 in WNW 2.3 mph 2.3 mph 47 % 0 in
22:45 40.1 °F 25.2 °F 30.4 in North 2 mph 3 mph 55 % 0 in
22:48 41 °F 22.3 °F 30.4 in Calm     47 % 0 in
22:53 41.2 °F 22.5 °F 30.4 in WSW 2.3 mph 2.3 mph 47 % 0 in
22:55 40.1 °F 25.2 °F 30.4 in NNE 2 mph 4 mph 55 % 0 in
22:58 41.2 °F 23 °F 30.4 in NNE 1.2 mph   48 % 0 in
23:03 41.4 °F 23.2 °F 30.4 in NNE 2.3 mph 2.3 mph 48 % 0 in
23:05 39.6 °F 24.6 °F 30.4 in NE 3 mph 3 mph 55 % 0 in
23:08 41.9 °F 23.5 °F 30.4 in SW 2.4 mph 2.4 mph 48 % 0 in
23:13 40.8 °F 22.6 °F 30.4 in ENE 1.6 mph   48 % 0 in
23:15 38.8 °F 24.1 °F 30.4 in NNE 1 mph 3 mph 55 % 0 in
23:18 40.6 °F 22.8 °F 30.4 in ENE 1.2 mph   49 % 0 in
23:20 40.6 °F 22.8 °F 30.4 in Calm     49 % 0 in
23:25 40.6 °F 22.8 °F 30.4 in Calm     49 % 0 in
23:30 40.6 °F 23.4 °F 30.4 in Calm     50 % 0 in
23:35 40.6 °F 23.4 °F 30.4 in Calm     50 % 0 in
23:40 41 °F 23.7 °F 30.4 in WNW 1.2 mph 1.2 mph 50 % 0 in
23:45 40.8 °F 23.5 °F 30.4 in East 1.4 mph 1.4 mph 50 % 0 in
23:50 40.6 °F 23.4 °F 30.4 in Calm     50 % 0 in
23:55 40.1 °F 22.8 °F 30.4 in Calm     50 % 0 in
Meteo Sesrovires
Elogis d' Weather Underground - 3.75 mb

Guio original per  Jim McMurry - jmcmurry@mwt.net Adaptat per a la plantilla per  Wim van der Kuil - Leuven-Template.eu

Trobareu la nostra informacio del temps tambe a:

Weather Underground

AWEKAS